sensor_id;sensor_type;location;lat;lon;timestamp;pressure;altitude;pressure_sealevel;temperature;humidity
38227;BME280;24026;49.446;8.576;2022-12-18T00:01:52;101814.88;;;6.78;34.45
38227;BME280;24026;49.446;8.576;2022-12-18T00:04:20;101815.03;;;6.77;34.37
38227;BME280;24026;49.446;8.576;2022-12-18T00:06:41;101818.50;;;6.77;34.44
38227;BME280;24026;49.446;8.576;2022-12-18T00:09:02;101808.75;;;6.78;34.77
38227;BME280;24026;49.446;8.576;2022-12-18T00:11:26;101815.84;;;6.77;34.44
38227;BME280;24026;49.446;8.576;2022-12-18T00:13:47;101815.03;;;6.77;34.55
38227;BME280;24026;49.446;8.576;2022-12-18T00:16:10;101814.19;;;6.76;34.45
38227;BME280;24026;49.446;8.576;2022-12-18T00:18:32;101818.03;;;6.74;34.47
38227;BME280;24026;49.446;8.576;2022-12-18T00:20:52;101814.38;;;6.75;34.49
38227;BME280;24026;49.446;8.576;2022-12-18T00:23:13;101808.91;;;6.76;34.58
38227;BME280;24026;49.446;8.576;2022-12-18T00:25:34;101811.75;;;6.75;34.50
38227;BME280;24026;49.446;8.576;2022-12-18T00:27:55;101809.28;;;6.73;34.32
38227;BME280;24026;49.446;8.576;2022-12-18T00:30:16;101804.00;;;6.73;34.60
38227;BME280;24026;49.446;8.576;2022-12-18T00:32:36;101812.59;;;6.75;34.38
38227;BME280;24026;49.446;8.576;2022-12-18T00:34:57;101811.91;;;6.73;34.60
38227;BME280;24026;49.446;8.576;2022-12-18T00:37:17;101814.56;;;6.73;34.47
38227;BME280;24026;49.446;8.576;2022-12-18T00:39:37;101818.22;;;6.72;34.68
38227;BME280;24026;49.446;8.576;2022-12-18T00:41:58;101815.75;;;6.71;34.61
38227;BME280;24026;49.446;8.576;2022-12-18T00:44:37;101821.22;;;6.69;34.57
38227;BME280;24026;49.446;8.576;2022-12-18T00:46:58;101814.94;;;6.70;34.69
38227;BME280;24026;49.446;8.576;2022-12-18T00:49:19;101814.09;;;6.70;34.51
38227;BME280;24026;49.446;8.576;2022-12-18T00:51:40;101826.69;;;6.67;34.73
38227;BME280;24026;49.446;8.576;2022-12-18T00:54:00;101827.50;;;6.68;34.45
38227;BME280;24026;49.446;8.576;2022-12-18T00:56:20;101833.81;;;6.67;34.56
38227;BME280;24026;49.446;8.576;2022-12-18T00:58:41;101832.78;;;6.68;34.67
38227;BME280;24026;49.446;8.576;2022-12-18T01:01:04;101833.81;;;6.67;34.63
38227;BME280;24026;49.446;8.576;2022-12-18T01:03:24;101827.69;;;6.66;34.85
38227;BME280;24026;49.446;8.576;2022-12-18T01:05:44;101836.44;;;6.67;34.71
38227;BME280;24026;49.446;8.576;2022-12-18T01:08:05;101818.13;;;6.65;34.67
38227;BME280;24026;49.446;8.576;2022-12-18T01:10:25;101823.41;;;6.65;34.78
38227;BME280;24026;49.446;8.576;2022-12-18T01:12:46;101818.94;;;6.66;34.62
38227;BME280;24026;49.446;8.576;2022-12-18T01:15:07;101812.03;;;6.65;34.65
38227;BME280;24026;49.446;8.576;2022-12-18T01:17:29;101807.56;;;6.65;34.67
38227;BME280;24026;49.446;8.576;2022-12-18T01:19:49;101806.91;;;6.63;34.58
38227;BME280;24026;49.446;8.576;2022-12-18T01:22:09;101809.38;;;6.65;34.46
38227;BME280;24026;49.446;8.576;2022-12-18T01:24:30;101815.66;;;6.64;34.47
38227;BME280;24026;49.446;8.576;2022-12-18T01:26:50;101811.19;;;6.64;34.51
38227;BME280;24026;49.446;8.576;2022-12-18T01:29:11;101810.38;;;6.64;34.63
38227;BME280;24026;49.446;8.576;2022-12-18T01:31:32;101818.47;;;6.62;34.60
38227;BME280;24026;49.446;8.576;2022-12-18T01:33:54;101818.47;;;6.62;34.77
38227;BME280;24026;49.446;8.576;2022-12-18T01:36:21;101821.94;;;6.63;34.74
38227;BME280;24026;49.446;8.576;2022-12-18T01:38:42;101827.22;;;6.63;34.66
38227;BME280;24026;49.446;8.576;2022-12-18T01:41:02;101833.53;;;6.62;34.71
38227;BME280;24026;49.446;8.576;2022-12-18T01:43:43;101827.22;;;6.63;34.50
38227;BME280;24026;49.446;8.576;2022-12-18T01:46:04;101825.59;;;6.62;34.65
38227;BME280;24026;49.446;8.576;2022-12-18T01:48:25;101819.00;;;6.58;34.82
38227;BME280;24026;49.446;8.576;2022-12-18T01:50:45;101822.50;;;6.58;34.78
38227;BME280;24026;49.446;8.576;2022-12-18T01:53:11;101815.38;;;6.59;34.65
38227;BME280;24026;49.446;8.576;2022-12-18T01:55:40;101817.22;;;6.58;34.67
38227;BME280;24026;49.446;8.576;2022-12-18T01:58:02;101820.66;;;6.59;34.42
38227;BME280;24026;49.446;8.576;2022-12-18T02:00:24;101828.59;;;6.59;34.69
38227;BME280;24026;49.446;8.576;2022-12-18T02:02:46;101821.66;;;6.58;34.67
38227;BME280;24026;49.446;8.576;2022-12-18T02:05:07;101827.97;;;6.57;34.47
38227;BME280;24026;49.446;8.576;2022-12-18T02:07:45;101829.75;;;6.56;34.56
38227;BME280;24026;49.446;8.576;2022-12-18T02:15:45;101830.97;;;6.54;34.80
38227;BME280;24026;49.446;8.576;2022-12-18T02:18:27;101830.97;;;6.54;34.75
38227;BME280;24026;49.446;8.576;2022-12-18T02:20:55;101836.25;;;6.54;34.60
38227;BME280;24026;49.446;8.576;2022-12-18T02:26:07;101837.88;;;6.55;34.60
38227;BME280;24026;49.446;8.576;2022-12-18T02:28:35;101841.69;;;6.52;34.59
38227;BME280;24026;49.446;8.576;2022-12-18T02:30:59;101846.34;;;6.50;34.74
38227;BME280;24026;49.446;8.576;2022-12-18T02:33:21;101849.63;;;6.52;34.62
38227;BME280;24026;49.446;8.576;2022-12-18T02:35:43;101836.41;;;6.52;34.57
38227;BME280;24026;49.446;8.576;2022-12-18T02:38:06;101831.31;;;6.51;34.53
38227;BME280;24026;49.446;8.576;2022-12-18T02:40:27;101833.78;;;6.52;34.59
38227;BME280;24026;49.446;8.576;2022-12-18T02:42:48;101830.50;;;6.50;34.56
38227;BME280;24026;49.446;8.576;2022-12-18T02:45:09;101830.69;;;6.48;34.63
38227;BME280;24026;49.446;8.576;2022-12-18T02:47:39;101825.56;;;6.47;34.65
38227;BME280;24026;49.446;8.576;2022-12-18T02:53:21;101803.59;;;6.46;34.56
38227;BME280;24026;49.446;8.576;2022-12-18T02:59:04;101790.59;;;6.45;34.43
38227;BME280;24026;49.446;8.576;2022-12-18T03:03:57;101798.69;;;6.43;34.34
38227;BME280;24026;49.446;8.576;2022-12-18T03:06:41;101820.00;;;6.42;34.58
38227;BME280;24026;49.446;8.576;2022-12-18T03:09:10;101820.19;;;6.40;34.36
38227;BME280;24026;49.446;8.576;2022-12-18T03:11:34;101820.34;;;6.39;34.46
38227;BME280;24026;49.446;8.576;2022-12-18T03:14:19;101824.81;;;6.38;34.51
38227;BME280;24026;49.446;8.576;2022-12-18T03:16:42;101833.56;;;6.39;34.24
38227;BME280;24026;49.446;8.576;2022-12-18T03:19:09;101839.66;;;6.39;34.52
38227;BME280;24026;49.446;8.576;2022-12-18T03:21:42;101829.44;;;6.36;34.44
38227;BME280;24026;49.446;8.576;2022-12-18T03:24:06;101812.59;;;6.37;34.47
38227;BME280;24026;49.446;8.576;2022-12-18T03:26:28;101809.97;;;6.37;34.34
38227;BME280;24026;49.446;8.576;2022-12-18T03:28:53;101810.94;;;6.36;34.19
38227;BME280;24026;49.446;8.576;2022-12-18T03:31:14;101792.47;;;6.36;34.36
38227;BME280;24026;49.446;8.576;2022-12-18T03:33:38;101807.31;;;6.37;34.31
38227;BME280;24026;49.446;8.576;2022-12-18T03:36:00;101826.81;;;6.36;34.39
38227;BME280;24026;49.446;8.576;2022-12-18T03:38:21;101836.56;;;6.36;34.30
38227;BME280;24026;49.446;8.576;2022-12-18T03:49:14;101823.88;;;6.31;34.30
38227;BME280;24026;49.446;8.576;2022-12-18T03:51:43;101821.22;;;6.31;34.00
38227;BME280;24026;49.446;8.576;2022-12-18T03:54:09;101814.34;;;6.30;34.23
38227;BME280;24026;49.446;8.576;2022-12-18T03:56:33;101820.59;;;6.29;34.17
38227;BME280;24026;49.446;8.576;2022-12-18T03:58:56;101817.97;;;6.29;34.33
38227;BME280;24026;49.446;8.576;2022-12-18T04:01:20;101823.25;;;6.29;34.24
38227;BME280;24026;49.446;8.576;2022-12-18T04:03:44;101825.88;;;6.29;34.30
38227;BME280;24026;49.446;8.576;2022-12-18T04:06:07;101808.38;;;6.28;34.25
38227;BME280;24026;49.446;8.576;2022-12-18T04:08:28;101812.84;;;6.27;34.18
38227;BME280;24026;49.446;8.576;2022-12-18T04:10:49;101827.72;;;6.28;34.11
38227;BME280;24026;49.446;8.576;2022-12-18T04:13:09;101825.25;;;6.27;34.15
38227;BME280;24026;49.446;8.576;2022-12-18T04:15:33;101831.34;;;6.27;33.99
38227;BME280;24026;49.446;8.576;2022-12-18T04:17:54;101819.78;;;6.28;34.10
38227;BME280;24026;49.446;8.576;2022-12-18T04:20:34;101822.59;;;6.27;34.08
38227;BME280;24026;49.446;8.576;2022-12-18T04:22:55;101819.31;;;6.25;33.78
38227;BME280;24026;49.446;8.576;2022-12-18T04:25:15;101819.13;;;6.26;33.91
38227;BME280;24026;49.446;8.576;2022-12-18T04:27:36;101810.38;;;6.26;34.06
38227;BME280;24026;49.446;8.576;2022-12-18T04:29:56;101803.66;;;6.23;34.10
38227;BME280;24026;49.446;8.576;2022-12-18T04:32:16;101798.56;;;6.22;34.23
38227;BME280;24026;49.446;8.576;2022-12-18T04:34:37;101808.09;;;6.23;33.98
38227;BME280;24026;49.446;8.576;2022-12-18T04:36:57;101804.47;;;6.24;34.09
38227;BME280;24026;49.446;8.576;2022-12-18T04:39:18;101799.19;;;6.24;33.92
38227;BME280;24026;49.446;8.576;2022-12-18T04:41:38;101805.63;;;6.21;34.14
38227;BME280;24026;49.446;8.576;2022-12-18T04:43:58;101810.91;;;6.21;33.95
38227;BME280;24026;49.446;8.576;2022-12-18T04:46:19;101808.44;;;6.20;33.86
38227;BME280;24026;49.446;8.576;2022-12-18T04:48:39;101807.28;;;6.22;34.00
38227;BME280;24026;49.446;8.576;2022-12-18T04:51:00;101798.91;;;6.19;34.11
38227;BME280;24026;49.446;8.576;2022-12-18T04:53:20;101808.28;;;6.21;33.97
38227;BME280;24026;49.446;8.576;2022-12-18T04:55:40;101810.28;;;6.19;33.73
38227;BME280;24026;49.446;8.576;2022-12-18T04:58:01;101816.38;;;6.20;34.19
38227;BME280;24026;49.446;8.576;2022-12-18T05:00:22;101814.75;;;6.19;33.90
38227;BME280;24026;49.446;8.576;2022-12-18T05:02:42;101816.38;;;6.20;33.97
38227;BME280;24026;49.446;8.576;2022-12-18T05:05:03;101817.56;;;6.17;34.12
38227;BME280;24026;49.446;8.576;2022-12-18T05:07:24;101824.66;;;6.17;34.17
38227;BME280;24026;49.446;8.576;2022-12-18T05:09:44;101826.28;;;6.18;33.85
38227;BME280;24026;49.446;8.576;2022-12-18T05:12:05;101836.22;;;6.16;33.91
38227;BME280;24026;49.446;8.576;2022-12-18T05:14:25;101833.56;;;6.16;34.11
38227;BME280;24026;49.446;8.576;2022-12-18T05:16:47;101829.94;;;6.17;34.01
38227;BME280;24026;49.446;8.576;2022-12-18T05:19:08;101833.56;;;6.16;33.79
38227;BME280;24026;49.446;8.576;2022-12-18T05:21:28;101833.56;;;6.16;34.01
38227;BME280;24026;49.446;8.576;2022-12-18T05:23:49;101832.09;;;6.13;34.07
38227;BME280;24026;49.446;8.576;2022-12-18T05:26:14;101828.66;;;6.12;33.96
38227;BME280;24026;49.446;8.576;2022-12-18T05:28:35;101834.75;;;6.13;33.90
38227;BME280;24026;49.446;8.576;2022-12-18T05:30:58;101843.69;;;6.12;33.81
38227;BME280;24026;49.446;8.576;2022-12-18T05:33:20;101846.31;;;6.12;33.98
38227;BME280;24026;49.446;8.576;2022-12-18T05:35:41;101842.03;;;6.11;33.96
38227;BME280;24026;49.446;8.576;2022-12-18T05:38:01;101833.28;;;6.10;34.20
38227;BME280;24026;49.446;8.576;2022-12-18T05:40:21;101839.38;;;6.11;34.01
38227;BME280;24026;49.446;8.576;2022-12-18T05:42:42;101839.38;;;6.11;33.92
38227;BME280;24026;49.446;8.576;2022-12-18T05:45:02;101835.94;;;6.10;33.99
38227;BME280;24026;49.446;8.576;2022-12-18T05:47:23;101829.84;;;6.10;33.97
38227;BME280;24026;49.446;8.576;2022-12-18T05:49:43;101819.28;;;6.10;34.03
38227;BME280;24026;49.446;8.576;2022-12-18T05:52:04;101807.88;;;6.09;33.85
38227;BME280;24026;49.446;8.576;2022-12-18T05:54:27;101820.44;;;6.07;34.06
38227;BME280;24026;49.446;8.576;2022-12-18T05:56:48;101817.63;;;6.09;33.96
38227;BME280;24026;49.446;8.576;2022-12-18T05:59:08;101816.63;;;6.10;33.93
38227;BME280;24026;49.446;8.576;2022-12-18T06:01:28;101824.72;;;6.08;33.94
38227;BME280;24026;49.446;8.576;2022-12-18T06:03:49;101826.34;;;6.09;33.82
38227;BME280;24026;49.446;8.576;2022-12-18T06:06:21;101823.06;;;6.07;33.97
38227;BME280;24026;49.446;8.576;2022-12-18T06:08:42;101834.44;;;6.08;33.92
38227;BME280;24026;49.446;8.576;2022-12-18T06:11:03;101825.72;;;6.07;33.85
38227;BME280;24026;49.446;8.576;2022-12-18T06:13:23;101825.44;;;6.02;34.10
38227;BME280;24026;49.446;8.576;2022-12-18T06:15:43;101838.28;;;6.05;33.82
38227;BME280;24026;49.446;8.576;2022-12-18T06:18:04;101837.25;;;6.06;33.87
38227;BME280;24026;49.446;8.576;2022-12-18T06:20:24;101840.75;;;6.07;33.86
38227;BME280;24026;49.446;8.576;2022-12-18T06:22:45;101837.47;;;6.05;34.05
38227;BME280;24026;49.446;8.576;2022-12-18T06:25:05;101840.09;;;6.05;33.99
38227;BME280;24026;49.446;8.576;2022-12-18T06:27:26;101852.28;;;6.06;33.92
38227;BME280;24026;49.446;8.576;2022-12-18T06:29:46;101851.47;;;6.05;33.97
38227;BME280;24026;49.446;8.576;2022-12-18T06:32:08;101857.75;;;6.04;34.02
38227;BME280;24026;49.446;8.576;2022-12-18T06:34:31;101864.69;;;6.05;34.00
38227;BME280;24026;49.446;8.576;2022-12-18T06:36:52;101857.75;;;6.04;33.90
38227;BME280;24026;49.446;8.576;2022-12-18T06:39:12;101863.88;;;6.05;34.00
38227;BME280;24026;49.446;8.576;2022-12-18T06:41:33;101862.38;;;6.02;33.91
38227;BME280;24026;49.446;8.576;2022-12-18T06:43:53;101859.75;;;6.02;34.01
38227;BME280;24026;49.446;8.576;2022-12-18T06:46:14;101857.09;;;6.02;33.89
38227;BME280;24026;49.446;8.576;2022-12-18T06:48:34;101860.56;;;6.03;34.07
38227;BME280;24026;49.446;8.576;2022-12-18T06:50:55;101867.66;;;6.02;33.88
38227;BME280;24026;49.446;8.576;2022-12-18T06:53:15;101872.31;;;6.00;33.93
38227;BME280;24026;49.446;8.576;2022-12-18T06:55:36;101881.84;;;6.01;33.88
38227;BME280;24026;49.446;8.576;2022-12-18T06:57:56;101883.66;;;6.01;33.84
38227;BME280;24026;49.446;8.576;2022-12-18T07:00:17;101877.59;;;6.00;33.85
38227;BME280;24026;49.446;8.576;2022-12-18T07:02:37;101881.38;;;5.98;33.92
38227;BME280;24026;49.446;8.576;2022-12-18T07:04:58;101884.66;;;6.00;34.11
38227;BME280;24026;49.446;8.576;2022-12-18T07:07:18;101889.75;;;6.01;34.10
38227;BME280;24026;49.446;8.576;2022-12-18T07:09:39;101887.28;;;6.00;33.76
38227;BME280;24026;49.446;8.576;2022-12-18T07:11:59;101896.41;;;5.97;33.98
38227;BME280;24026;49.446;8.576;2022-12-18T07:14:19;101895.41;;;5.98;33.99
38227;BME280;24026;49.446;8.576;2022-12-18T07:16:40;101899.03;;;5.97;33.86
38227;BME280;24026;49.446;8.576;2022-12-18T07:19:01;101900.69;;;5.98;34.15
38227;BME280;24026;49.446;8.576;2022-12-18T07:21:22;101900.03;;;5.96;34.03
38227;BME280;24026;49.446;8.576;2022-12-18T07:23:42;101897.22;;;5.98;34.02
38227;BME280;24026;49.446;8.576;2022-12-18T07:26:06;101908.63;;;5.98;33.81
38227;BME280;24026;49.446;8.576;2022-12-18T07:28:26;101907.09;;;5.96;34.07
38227;BME280;24026;49.446;8.576;2022-12-18T07:30:47;101905.44;;;5.94;34.16
38227;BME280;24026;49.446;8.576;2022-12-18T07:33:07;101912.56;;;5.94;33.77
38227;BME280;24026;49.446;8.576;2022-12-18T07:35:28;101912.72;;;5.92;34.30
38227;BME280;24026;49.446;8.576;2022-12-18T07:37:48;101905.81;;;5.91;33.86
38227;BME280;24026;49.446;8.576;2022-12-18T07:40:09;101908.47;;;5.91;34.24
38227;BME280;24026;49.446;8.576;2022-12-18T07:42:29;101908.25;;;5.93;34.03
38227;BME280;24026;49.446;8.576;2022-12-18T07:44:53;101897.69;;;5.93;34.10
38227;BME280;24026;49.446;8.576;2022-12-18T07:47:13;101902.97;;;5.93;33.97
38227;BME280;24026;49.446;8.576;2022-12-18T07:49:33;101902.16;;;5.92;34.05
38227;BME280;24026;49.446;8.576;2022-12-18T07:51:55;101900.34;;;5.93;34.03
38227;BME280;24026;49.446;8.576;2022-12-18T07:54:16;101896.88;;;5.92;34.05
38227;BME280;24026;49.446;8.576;2022-12-18T07:56:36;101899.69;;;5.91;33.77
38227;BME280;24026;49.446;8.576;2022-12-18T07:58:58;101908.47;;;5.91;34.00
38227;BME280;24026;49.446;8.576;2022-12-18T08:01:18;101908.47;;;5.91;33.86
38227;BME280;24026;49.446;8.576;2022-12-18T08:03:40;101902.34;;;5.91;34.05
38227;BME280;24026;49.446;8.576;2022-12-18T08:06:05;101905.16;;;5.89;34.11
38227;BME280;24026;49.446;8.576;2022-12-18T08:08:27;101906.63;;;5.92;33.99
38227;BME280;24026;49.446;8.576;2022-12-18T08:10:47;101898.72;;;5.92;33.87
38227;BME280;24026;49.446;8.576;2022-12-18T08:13:07;101903.19;;;5.91;33.99
38227;BME280;24026;49.446;8.576;2022-12-18T08:15:28;101903.34;;;5.90;33.92
38227;BME280;24026;49.446;8.576;2022-12-18T08:17:48;101912.72;;;5.92;33.85
38227;BME280;24026;49.446;8.576;2022-12-18T08:20:09;101906.47;;;5.93;33.91
38227;BME280;24026;49.446;8.576;2022-12-18T08:22:29;101912.72;;;5.92;33.78
38227;BME280;24026;49.446;8.576;2022-12-18T08:24:50;101913.53;;;5.93;33.89
38227;BME280;24026;49.446;8.576;2022-12-18T08:27:10;101912.72;;;5.92;33.73
38227;BME280;24026;49.446;8.576;2022-12-18T08:29:30;101915.69;;;5.89;33.97
38227;BME280;24026;49.446;8.576;2022-12-18T08:31:52;101915.69;;;5.89;33.93
38227;BME280;24026;49.446;8.576;2022-12-18T08:34:12;101916.53;;;5.90;33.94
38227;BME280;24026;49.446;8.576;2022-12-18T08:36:32;101912.06;;;5.90;34.01
38227;BME280;24026;49.446;8.576;2022-12-18T08:38:53;101909.44;;;5.90;33.98
38227;BME280;24026;49.446;8.576;2022-12-18T08:41:15;101902.34;;;5.91;33.87
38227;BME280;24026;49.446;8.576;2022-12-18T08:43:36;101897.06;;;5.91;33.81
38227;BME280;24026;49.446;8.576;2022-12-18T08:46:18;101892.41;;;5.93;33.89
38227;BME280;24026;49.446;8.576;2022-12-18T08:48:39;101890.78;;;5.92;33.86
38227;BME280;24026;49.446;8.576;2022-12-18T08:50:59;101895.25;;;5.91;33.73
38227;BME280;24026;49.446;8.576;2022-12-18T08:53:20;101895.25;;;5.91;33.80
38227;BME280;24026;49.446;8.576;2022-12-18T08:55:40;101890.78;;;5.92;33.61
38227;BME280;24026;49.446;8.576;2022-12-18T08:58:01;101883.03;;;5.90;33.87
38227;BME280;24026;49.446;8.576;2022-12-18T09:00:22;101868.88;;;5.91;34.00
38227;BME280;24026;49.446;8.576;2022-12-18T09:02:42;101856.66;;;5.90;33.84
38227;BME280;24026;49.446;8.576;2022-12-18T09:05:03;101867.84;;;5.92;33.94
38227;BME280;24026;49.446;8.576;2022-12-18T09:07:23;101860.75;;;5.93;33.92
38227;BME280;24026;49.446;8.576;2022-12-18T09:09:44;101854.47;;;5.94;33.78
38227;BME280;24026;49.446;8.576;2022-12-18T09:12:04;101855.28;;;5.94;33.98
38227;BME280;24026;49.446;8.576;2022-12-18T09:14:24;101854.31;;;5.96;33.75
38227;BME280;24026;49.446;8.576;2022-12-18T09:16:45;101856.94;;;5.96;33.73
38227;BME280;24026;49.446;8.576;2022-12-18T09:19:05;101855.16;;;5.96;34.08
38227;BME280;24026;49.446;8.576;2022-12-18T09:21:28;101852.50;;;5.96;34.13
38227;BME280;24026;49.446;8.576;2022-12-18T09:23:50;101862.09;;;5.97;33.85
38227;BME280;24026;49.446;8.576;2022-12-18T09:26:11;101862.91;;;5.98;33.60
38227;BME280;24026;49.446;8.576;2022-12-18T09:28:31;101862.91;;;5.98;33.84
38227;BME280;24026;49.446;8.576;2022-12-18T09:30:52;101857.63;;;5.98;33.91
38227;BME280;24026;49.446;8.576;2022-12-18T09:33:12;101865.53;;;5.98;33.69
38227;BME280;24026;49.446;8.576;2022-12-18T09:35:41;101873.47;;;5.98;33.87
38227;BME280;24026;49.446;8.576;2022-12-18T09:38:02;101875.13;;;5.99;33.91
38227;BME280;24026;49.446;8.576;2022-12-18T09:40:25;101882.84;;;6.00;33.89
38227;BME280;24026;49.446;8.576;2022-12-18T09:42:51;101880.22;;;6.00;33.66
38227;BME280;24026;49.446;8.576;2022-12-18T09:45:14;101878.22;;;6.02;33.74
38227;BME280;24026;49.446;8.576;2022-12-18T09:47:37;101883.66;;;6.01;33.95
38227;BME280;24026;49.446;8.576;2022-12-18T09:50:01;101891.59;;;6.01;33.93
38227;BME280;24026;49.446;8.576;2022-12-18T09:52:31;101910.72;;;6.03;33.82
38227;BME280;24026;49.446;8.576;2022-12-18T09:54:59;101914.19;;;6.03;33.93
38227;BME280;24026;49.446;8.576;2022-12-18T09:57:23;101921.09;;;6.04;33.69
38227;BME280;24026;49.446;8.576;2022-12-18T09:59:50;101920.75;;;6.07;33.77
38227;BME280;24026;49.446;8.576;2022-12-18T10:02:14;101919.94;;;6.07;33.65
38227;BME280;24026;49.446;8.576;2022-12-18T10:04:35;101915.31;;;6.09;33.73
38227;BME280;24026;49.446;8.576;2022-12-18T10:07:23;101915.13;;;6.10;33.92
38227;BME280;24026;49.446;8.576;2022-12-18T10:09:58;101915.13;;;6.10;33.73
38227;BME280;24026;49.446;8.576;2022-12-18T10:12:37;101905.22;;;6.12;33.82
38227;BME280;24026;49.446;8.576;2022-12-18T10:15:32;101899.94;;;6.12;33.64
38227;BME280;24026;49.446;8.576;2022-12-18T10:20:58;101889.31;;;6.21;33.61
38227;BME280;24026;49.446;8.576;2022-12-18T10:25:57;101900.16;;;6.26;33.69
38227;BME280;24026;49.446;8.576;2022-12-18T10:28:20;101908.56;;;6.29;33.70
38227;BME280;24026;49.446;8.576;2022-12-18T10:30:42;101916.31;;;6.31;33.56
38227;BME280;24026;49.446;8.576;2022-12-18T10:33:04;101905.56;;;6.33;33.62
38227;BME280;24026;49.446;8.576;2022-12-18T10:35:26;101899.75;;;6.37;33.39
38227;BME280;24026;49.446;8.576;2022-12-18T10:43:14;101879.91;;;6.41;33.64
38227;BME280;24026;49.446;8.576;2022-12-18T10:45:36;101864.56;;;6.45;33.51
38227;BME280;24026;49.446;8.576;2022-12-18T10:47:56;101857.63;;;6.44;33.63
38227;BME280;24026;49.446;8.576;2022-12-18T10:50:32;101857.09;;;6.48;33.67
38227;BME280;24026;49.446;8.576;2022-12-18T10:53:01;101862.38;;;6.48;33.49
38227;BME280;24026;49.446;8.576;2022-12-18T10:55:32;101869.94;;;6.52;33.61
38227;BME280;24026;49.446;8.576;2022-12-18T10:58:12;101867.94;;;6.54;33.55
38227;BME280;24026;49.446;8.576;2022-12-18T11:00:33;101866.09;;;6.54;33.44
38227;BME280;24026;49.446;8.576;2022-12-18T11:02:56;101867.59;;;6.57;33.48
38227;BME280;24026;49.446;8.576;2022-12-18T11:07:48;101866.22;;;6.61;33.68
38227;BME280;24026;49.446;8.576;2022-12-18T11:10:18;101862.59;;;6.62;33.55
38227;BME280;24026;49.446;8.576;2022-12-18T11:12:39;101865.50;;;6.67;33.66
38227;BME280;24026;49.446;8.576;2022-12-18T11:15:00;101871.44;;;6.69;33.28
38227;BME280;24026;49.446;8.576;2022-12-18T11:17:31;101873.91;;;6.71;33.43
38227;BME280;24026;49.446;8.576;2022-12-18T11:19:53;101877.00;;;6.74;33.60
38227;BME280;24026;49.446;8.576;2022-12-18T11:22:20;101870.72;;;6.75;33.36
38227;BME280;24026;49.446;8.576;2022-12-18T11:24:41;101866.25;;;6.76;33.26
38227;BME280;24026;49.446;8.576;2022-12-18T11:27:05;101868.72;;;6.77;33.71
38227;BME280;24026;49.446;8.576;2022-12-18T11:29:38;101866.69;;;6.79;33.48
38227;BME280;24026;49.446;8.576;2022-12-18T11:34:35;101866.34;;;6.82;33.50
38227;BME280;24026;49.446;8.576;2022-12-18T11:36:56;101862.72;;;6.83;33.50
38227;BME280;24026;49.446;8.576;2022-12-18T11:41:54;101859.50;;;6.88;33.55
38227;BME280;24026;49.446;8.576;2022-12-18T11:44:38;101865.63;;;6.89;33.31
38227;BME280;24026;49.446;8.576;2022-12-18T11:50:00;101848.22;;;6.94;33.49
38227;BME280;24026;49.446;8.576;2022-12-18T11:52:23;101850.50;;;6.97;33.54
38227;BME280;24026;49.446;8.576;2022-12-18T11:54:45;101837.28;;;6.97;33.60
38227;BME280;24026;49.446;8.576;2022-12-18T11:57:40;101830.78;;;7.00;33.67
38227;BME280;24026;49.446;8.576;2022-12-18T12:10:53;101846.75;;;7.07;33.67
38227;BME280;24026;49.446;8.576;2022-12-18T12:13:23;101843.94;;;7.08;33.50
38227;BME280;24026;49.446;8.576;2022-12-18T12:16:24;101840.28;;;7.09;33.77
38227;BME280;24026;49.446;8.576;2022-12-18T12:21:43;101836.66;;;7.10;33.73
38227;BME280;24026;49.446;8.576;2022-12-18T12:35:08;101811.66;;;7.13;33.90
38227;BME280;24026;49.446;8.576;2022-12-18T12:37:45;101813.13;;;7.15;33.90
38227;BME280;24026;49.446;8.576;2022-12-18T12:40:19;101824.50;;;7.16;33.91
38227;BME280;24026;49.446;8.576;2022-12-18T12:42:54;101826.97;;;7.17;33.85
38227;BME280;24026;49.446;8.576;2022-12-18T12:45:45;101831.28;;;7.18;33.88
38227;BME280;24026;49.446;8.576;2022-12-18T12:48:19;101824.16;;;7.19;34.06
38227;BME280;24026;49.446;8.576;2022-12-18T12:50:42;101823.97;;;7.20;34.00
38227;BME280;24026;49.446;8.576;2022-12-18T12:53:07;101817.03;;;7.19;33.94
38227;BME280;24026;49.446;8.576;2022-12-18T12:55:30;101808.28;;;7.19;34.07
38227;BME280;24026;49.446;8.576;2022-12-18T13:00:18;101794.25;;;7.18;34.16
38227;BME280;24026;49.446;8.576;2022-12-18T13:07:57;101793.22;;;7.19;34.11
38227;BME280;24026;49.446;8.576;2022-12-18T13:17:45;101763.31;;;7.19;34.20
38227;BME280;24026;49.446;8.576;2022-12-18T13:20:08;101760.50;;;7.20;34.26
38227;BME280;24026;49.446;8.576;2022-12-18T13:22:37;101750.91;;;7.19;34.20
38227;BME280;24026;49.446;8.576;2022-12-18T13:24:58;101759.03;;;7.18;34.61
38227;BME280;24026;49.446;8.576;2022-12-18T13:38:44;101755.75;;;7.16;34.50
38227;BME280;24026;49.446;8.576;2022-12-18T13:43:45;101753.28;;;7.14;34.69
38227;BME280;24026;49.446;8.576;2022-12-18T13:46:22;101748.00;;;7.14;34.88
38227;BME280;24026;49.446;8.576;2022-12-18T13:48:53;101747.19;;;7.14;34.86
38227;BME280;24026;49.446;8.576;2022-12-18T13:51:17;101742.91;;;7.13;34.72
38227;BME280;24026;49.446;8.576;2022-12-18T13:53:49;101743.72;;;7.13;34.81
38227;BME280;24026;49.446;8.576;2022-12-18T13:56:16;101738.41;;;7.13;34.92
38227;BME280;24026;49.446;8.576;2022-12-18T13:58:37;101743.72;;;7.13;34.66
38227;BME280;24026;49.446;8.576;2022-12-18T14:00:57;101739.44;;;7.12;34.88
38227;BME280;24026;49.446;8.576;2022-12-18T14:03:25;101740.44;;;7.11;34.95
38227;BME280;24026;49.446;8.576;2022-12-18T14:05:56;101748.56;;;7.10;35.04
38227;BME280;24026;49.446;8.576;2022-12-18T14:08:18;101752.84;;;7.11;35.09
38227;BME280;24026;49.446;8.576;2022-12-18T14:10:46;101748.56;;;7.10;35.08
38227;BME280;24026;49.446;8.576;2022-12-18T14:13:10;101754.69;;;7.10;35.01
38227;BME280;24026;49.446;8.576;2022-12-18T14:15:31;101748.56;;;7.10;35.17
38227;BME280;24026;49.446;8.576;2022-12-18T14:18:02;101748.75;;;7.08;35.16
38227;BME280;24026;49.446;8.576;2022-12-18T14:20:25;101751.38;;;7.08;35.39
38227;BME280;24026;49.446;8.576;2022-12-18T14:22:47;101739.19;;;7.07;35.30